sensor_id;sensor_type;location;lat;lon;timestamp;temperature;humidity
66337;SHT30;53139;45.576;5.304;2023-05-07T00:02:17;17.51;59.49
66337;SHT30;53139;45.576;5.304;2023-05-07T00:05:17;17.45;59.61
66337;SHT30;53139;45.576;5.304;2023-05-07T00:08:18;17.49;59.03
66337;SHT30;53139;45.576;5.304;2023-05-07T00:11:18;17.49;58.95
66337;SHT30;53139;45.576;5.304;2023-05-07T00:14:19;17.40;59.32
66337;SHT30;53139;45.576;5.304;2023-05-07T00:17:20;17.35;59.48
66337;SHT30;53139;45.576;5.304;2023-05-07T00:20:21;17.50;58.71
66337;SHT30;53139;45.576;5.304;2023-05-07T00:23:22;17.43;59.14
66337;SHT30;53139;45.576;5.304;2023-05-07T00:26:22;17.28;60.23
66337;SHT30;53139;45.576;5.304;2023-05-07T00:29:23;17.26;60.52
66337;SHT30;53139;45.576;5.304;2023-05-07T00:32:23;17.39;60.37
66337;SHT30;53139;45.576;5.304;2023-05-07T00:35:24;17.33;60.74
66337;SHT30;53139;45.576;5.304;2023-05-07T00:38:24;17.29;61.08
66337;SHT30;53139;45.576;5.304;2023-05-07T00:41:25;17.28;60.93
66337;SHT30;53139;45.576;5.304;2023-05-07T00:44:25;17.33;60.79
66337;SHT30;53139;45.576;5.304;2023-05-07T00:47:25;17.26;60.98
66337;SHT30;53139;45.576;5.304;2023-05-07T00:50:29;17.19;61.35
66337;SHT30;53139;45.576;5.304;2023-05-07T00:53:30;17.16;61.07
66337;SHT30;53139;45.576;5.304;2023-05-07T00:56:31;17.07;61.46
66337;SHT30;53139;45.576;5.304;2023-05-07T00:59:32;17.16;60.87
66337;SHT30;53139;45.576;5.304;2023-05-07T01:02:33;17.05;61.59
66337;SHT30;53139;45.576;5.304;2023-05-07T01:05:33;17.01;62.04
66337;SHT30;53139;45.576;5.304;2023-05-07T01:08:34;16.98;62.38
66337;SHT30;53139;45.576;5.304;2023-05-07T01:11:35;17.04;62.12
66337;SHT30;53139;45.576;5.304;2023-05-07T01:14:36;16.91;62.93
66337;SHT30;53139;45.576;5.304;2023-05-07T01:17:38;16.89;63.31
66337;SHT30;53139;45.576;5.304;2023-05-07T01:20:39;16.92;63.26
66337;SHT30;53139;45.576;5.304;2023-05-07T01:23:40;16.82;63.81
66337;SHT30;53139;45.576;5.304;2023-05-07T01:26:43;16.91;63.51
66337;SHT30;53139;45.576;5.304;2023-05-07T01:29:43;16.95;63.46
66337;SHT30;53139;45.576;5.304;2023-05-07T01:33:00;16.89;63.96
66337;SHT30;53139;45.576;5.304;2023-05-07T01:36:03;16.96;63.78
66337;SHT30;53139;45.576;5.304;2023-05-07T01:39:06;16.82;64.72
66337;SHT30;53139;45.576;5.304;2023-05-07T01:42:07;16.94;64.12
66337;SHT30;53139;45.576;5.304;2023-05-07T01:45:07;17.05;63.52
66337;SHT30;53139;45.576;5.304;2023-05-07T01:48:10;16.99;63.78
66337;SHT30;53139;45.576;5.304;2023-05-07T01:51:10;16.98;64.13
66337;SHT30;53139;45.576;5.304;2023-05-07T01:54:10;16.84;64.45
66337;SHT30;53139;45.576;5.304;2023-05-07T01:57:11;16.70;65.71
66337;SHT30;53139;45.576;5.304;2023-05-07T02:00:11;16.46;66.94
66337;SHT30;53139;45.576;5.304;2023-05-07T02:03:12;16.68;65.50
66337;SHT30;53139;45.576;5.304;2023-05-07T02:06:12;16.68;65.57
66337;SHT30;53139;45.576;5.304;2023-05-07T02:09:13;16.73;65.37
66337;SHT30;53139;45.576;5.304;2023-05-07T02:12:14;16.57;66.08
66337;SHT30;53139;45.576;5.304;2023-05-07T02:15:15;16.57;66.31
66337;SHT30;53139;45.576;5.304;2023-05-07T02:18:16;16.46;66.72
66337;SHT30;53139;45.576;5.304;2023-05-07T02:21:16;16.26;67.54
66337;SHT30;53139;45.576;5.304;2023-05-07T02:24:17;16.25;67.58
66337;SHT30;53139;45.576;5.304;2023-05-07T02:27:17;16.15;68.32
66337;SHT30;53139;45.576;5.304;2023-05-07T02:30:18;15.65;70.08
66337;SHT30;53139;45.576;5.304;2023-05-07T02:33:18;15.68;69.72
66337;SHT30;53139;45.576;5.304;2023-05-07T02:36:19;15.55;70.03
66337;SHT30;53139;45.576;5.304;2023-05-07T02:39:19;15.47;70.86
66337;SHT30;53139;45.576;5.304;2023-05-07T02:42:19;15.29;71.48
66337;SHT30;53139;45.576;5.304;2023-05-07T02:45:20;15.32;71.69
66337;SHT30;53139;45.576;5.304;2023-05-07T02:48:20;15.26;72.37
66337;SHT30;53139;45.576;5.304;2023-05-07T02:51:22;15.20;72.95
66337;SHT30;53139;45.576;5.304;2023-05-07T02:54:22;15.05;73.57
66337;SHT30;53139;45.576;5.304;2023-05-07T02:57:23;15.05;73.29
66337;SHT30;53139;45.576;5.304;2023-05-07T03:00:23;15.05;73.15
66337;SHT30;53139;45.576;5.304;2023-05-07T03:03:24;14.53;75.31
66337;SHT30;53139;45.576;5.304;2023-05-07T03:06:25;14.63;75.30
66337;SHT30;53139;45.576;5.304;2023-05-07T03:09:26;14.72;74.20
66337;SHT30;53139;45.576;5.304;2023-05-07T03:12:26;14.25;76.18
66337;SHT30;53139;45.576;5.304;2023-05-07T03:15:27;14.05;77.36
66337;SHT30;53139;45.576;5.304;2023-05-07T03:18:27;14.40;74.56
66337;SHT30;53139;45.576;5.304;2023-05-07T03:21:27;14.04;76.88
66337;SHT30;53139;45.576;5.304;2023-05-07T03:24:28;14.20;75.92
66337;SHT30;53139;45.576;5.304;2023-05-07T03:27:28;14.36;74.74
66337;SHT30;53139;45.576;5.304;2023-05-07T03:30:29;13.95;77.98
66337;SHT30;53139;45.576;5.304;2023-05-07T03:33:29;14.12;77.04
66337;SHT30;53139;45.576;5.304;2023-05-07T03:36:30;14.01;77.68
66337;SHT30;53139;45.576;5.304;2023-05-07T03:39:30;14.17;76.96
66337;SHT30;53139;45.576;5.304;2023-05-07T03:42:32;14.30;76.35
66337;SHT30;53139;45.576;5.304;2023-05-07T03:45:32;14.40;76.12
66337;SHT30;53139;45.576;5.304;2023-05-07T03:48:33;14.25;76.88
66337;SHT30;53139;45.576;5.304;2023-05-07T03:51:33;14.16;77.70
66337;SHT30;53139;45.576;5.304;2023-05-07T03:54:33;14.10;78.28
66337;SHT30;53139;45.576;5.304;2023-05-07T03:57:34;14.26;77.33
66337;SHT30;53139;45.576;5.304;2023-05-07T04:00:34;14.15;77.71
66337;SHT30;53139;45.576;5.304;2023-05-07T04:03:38;14.05;78.34
66337;SHT30;53139;45.576;5.304;2023-05-07T04:06:38;14.12;78.13
66337;SHT30;53139;45.576;5.304;2023-05-07T04:09:38;13.91;79.42
66337;SHT30;53139;45.576;5.304;2023-05-07T04:12:39;14.09;78.55
66337;SHT30;53139;45.576;5.304;2023-05-07T04:15:39;14.06;78.47
66337;SHT30;53139;45.576;5.304;2023-05-07T04:18:40;14.32;76.49
66337;SHT30;53139;45.576;5.304;2023-05-07T04:21:40;14.40;76.26
66337;SHT30;53139;45.576;5.304;2023-05-07T04:24:40;14.47;75.75
66337;SHT30;53139;45.576;5.304;2023-05-07T04:27:41;14.32;77.44
66337;SHT30;53139;45.576;5.304;2023-05-07T04:30:41;14.25;78.22
66337;SHT30;53139;45.576;5.304;2023-05-07T04:33:42;14.13;79.29
66337;SHT30;53139;45.576;5.304;2023-05-07T04:36:42;14.17;78.99
66337;SHT30;53139;45.576;5.304;2023-05-07T04:39:43;14.22;78.64
66337;SHT30;53139;45.576;5.304;2023-05-07T04:42:43;14.16;79.36
66337;SHT30;53139;45.576;5.304;2023-05-07T04:45:44;14.17;79.72
66337;SHT30;53139;45.576;5.304;2023-05-07T04:48:44;14.16;79.75
66337;SHT30;53139;45.576;5.304;2023-05-07T04:51:44;14.25;78.93
66337;SHT30;53139;45.576;5.304;2023-05-07T04:54:45;14.44;77.72
66337;SHT30;53139;45.576;5.304;2023-05-07T04:57:45;14.30;79.47
66337;SHT30;53139;45.576;5.304;2023-05-07T05:00:46;14.27;80.02
66337;SHT30;53139;45.576;5.304;2023-05-07T05:03:46;14.22;81.26
66337;SHT30;53139;45.576;5.304;2023-05-07T05:06:47;14.50;78.64
66337;SHT30;53139;45.576;5.304;2023-05-07T05:09:47;14.54;79.10
66337;SHT30;53139;45.576;5.304;2023-05-07T05:12:47;14.40;80.18
66337;SHT30;53139;45.576;5.304;2023-05-07T05:15:48;14.34;81.55
66337;SHT30;53139;45.576;5.304;2023-05-07T05:18:48;14.40;81.96
66337;SHT30;53139;45.576;5.304;2023-05-07T05:21:49;14.44;81.18
66337;SHT30;53139;45.576;5.304;2023-05-07T05:24:49;14.47;81.18
66337;SHT30;53139;45.576;5.304;2023-05-07T05:27:49;14.44;81.44
66337;SHT30;53139;45.576;5.304;2023-05-07T05:30:50;14.34;81.85
66337;SHT30;53139;45.576;5.304;2023-05-07T05:33:51;14.60;79.63
66337;SHT30;53139;45.576;5.304;2023-05-07T05:36:51;14.60;80.44
66337;SHT30;53139;45.576;5.304;2023-05-07T05:39:52;14.77;79.63
66337;SHT30;53139;45.576;5.304;2023-05-07T05:42:52;14.89;78.99
66337;SHT30;53139;45.576;5.304;2023-05-07T05:45:53;14.75;80.82
66337;SHT30;53139;45.576;5.304;2023-05-07T05:48:53;14.81;81.19
66337;SHT30;53139;45.576;5.304;2023-05-07T05:51:53;15.01;79.87
66337;SHT30;53139;45.576;5.304;2023-05-07T05:54:54;15.10;78.77
66337;SHT30;53139;45.576;5.304;2023-05-07T05:57:55;15.23;78.93
66337;SHT30;53139;45.576;5.304;2023-05-07T06:00:56;15.40;78.60
66337;SHT30;53139;45.576;5.304;2023-05-07T06:03:56;15.61;78.53
66337;SHT30;53139;45.576;5.304;2023-05-07T06:06:57;15.81;78.29
66337;SHT30;53139;45.576;5.304;2023-05-07T06:09:57;16.04;78.83
66337;SHT30;53139;45.576;5.304;2023-05-07T06:12:57;16.13;77.03
66337;SHT30;53139;45.576;5.304;2023-05-07T06:15:58;16.29;76.35
66337;SHT30;53139;45.576;5.304;2023-05-07T06:18:58;16.49;75.89
66337;SHT30;53139;45.576;5.304;2023-05-07T06:21:58;16.71;74.23
66337;SHT30;53139;45.576;5.304;2023-05-07T06:25:01;16.87;75.54
66337;SHT30;53139;45.576;5.304;2023-05-07T06:28:01;16.94;74.80
66337;SHT30;53139;45.576;5.304;2023-05-07T06:31:15;17.09;74.66
66337;SHT30;53139;45.576;5.304;2023-05-07T06:34:16;17.18;72.41
66337;SHT30;53139;45.576;5.304;2023-05-07T06:37:16;17.40;72.46
66337;SHT30;53139;45.576;5.304;2023-05-07T06:40:17;17.57;72.09
66337;SHT30;53139;45.576;5.304;2023-05-07T06:43:17;17.70;71.42
66337;SHT30;53139;45.576;5.304;2023-05-07T06:46:17;17.80;70.68
66337;SHT30;53139;45.576;5.304;2023-05-07T06:49:18;17.85;69.60
66337;SHT30;53139;45.576;5.304;2023-05-07T06:52:18;18.01;69.22
66337;SHT30;53139;45.576;5.304;2023-05-07T06:55:19;18.02;68.64
66337;SHT30;53139;45.576;5.304;2023-05-07T06:58:19;18.12;68.51
66337;SHT30;53139;45.576;5.304;2023-05-07T07:01:20;18.39;69.20
66337;SHT30;53139;45.576;5.304;2023-05-07T07:04:21;18.43;67.98
66337;SHT30;53139;45.576;5.304;2023-05-07T07:07:23;18.64;70.39
66337;SHT30;53139;45.576;5.304;2023-05-07T07:10:23;18.60;68.82
66337;SHT30;53139;45.576;5.304;2023-05-07T07:13:24;18.74;68.37
66337;SHT30;53139;45.576;5.304;2023-05-07T07:16:24;18.81;68.35
66337;SHT30;53139;45.576;5.304;2023-05-07T07:19:25;19.02;68.69
66337;SHT30;53139;45.576;5.304;2023-05-07T07:22:26;18.97;68.60
66337;SHT30;53139;45.576;5.304;2023-05-07T07:25:26;18.95;69.22
66337;SHT30;53139;45.576;5.304;2023-05-07T07:28:26;18.94;67.95
66337;SHT30;53139;45.576;5.304;2023-05-07T07:31:27;19.20;67.58
66337;SHT30;53139;45.576;5.304;2023-05-07T07:34:27;19.53;68.76
66337;SHT30;53139;45.576;5.304;2023-05-07T07:37:28;19.29;66.61
66337;SHT30;53139;45.576;5.304;2023-05-07T07:40:28;19.26;67.98
66337;SHT30;53139;45.576;5.304;2023-05-07T07:43:29;19.15;67.41
66337;SHT30;53139;45.576;5.304;2023-05-07T07:46:29;19.15;69.16
66337;SHT30;53139;45.576;5.304;2023-05-07T07:49:30;18.70;68.63
66337;SHT30;53139;45.576;5.304;2023-05-07T07:52:30;19.05;68.73
66337;SHT30;53139;45.576;5.304;2023-05-07T07:55:30;18.92;70.82
66337;SHT30;53139;45.576;5.304;2023-05-07T07:58:32;18.74;70.28
66337;SHT30;53139;45.576;5.304;2023-05-07T08:01:32;18.40;70.60
66337;SHT30;53139;45.576;5.304;2023-05-07T08:04:33;18.64;71.63
66337;SHT30;53139;45.576;5.304;2023-05-07T08:07:33;18.74;70.61
66337;SHT30;53139;45.576;5.304;2023-05-07T08:10:34;18.80;70.76
66337;SHT30;53139;45.576;5.304;2023-05-07T08:13:35;18.68;69.47
66337;SHT30;53139;45.576;5.304;2023-05-07T08:16:36;18.61;70.54
66337;SHT30;53139;45.576;5.304;2023-05-07T08:19:36;18.77;70.19
66337;SHT30;53139;45.576;5.304;2023-05-07T08:22:36;18.83;70.19
66337;SHT30;53139;45.576;5.304;2023-05-07T08:25:37;18.90;68.43
66337;SHT30;53139;45.576;5.304;2023-05-07T08:28:37;18.83;68.50
66337;SHT30;53139;45.576;5.304;2023-05-07T08:31:38;18.67;66.73
66337;SHT30;53139;45.576;5.304;2023-05-07T08:34:41;18.60;68.31
66337;SHT30;53139;45.576;5.304;2023-05-07T08:37:41;18.83;66.38
66337;SHT30;53139;45.576;5.304;2023-05-07T08:40:41;19.16;66.61
66337;SHT30;53139;45.576;5.304;2023-05-07T08:43:47;19.26;67.13
66337;SHT30;53139;45.576;5.304;2023-05-07T08:46:51;19.07;66.60
66337;SHT30;53139;45.576;5.304;2023-05-07T08:49:54;19.23;66.91
66337;SHT30;53139;45.576;5.304;2023-05-07T08:52:55;19.11;68.00
66337;SHT30;53139;45.576;5.304;2023-05-07T08:55:57;19.20;68.58
66337;SHT30;53139;45.576;5.304;2023-05-07T08:58:58;19.09;68.34
66337;SHT30;53139;45.576;5.304;2023-05-07T09:01:59;18.87;69.20
66337;SHT30;53139;45.576;5.304;2023-05-07T09:04:59;18.95;70.00
66337;SHT30;53139;45.576;5.304;2023-05-07T09:08:02;18.60;71.79
66337;SHT30;53139;45.576;5.304;2023-05-07T09:11:03;18.49;71.68
66337;SHT30;53139;45.576;5.304;2023-05-07T09:14:03;18.35;72.58
66337;SHT30;53139;45.576;5.304;2023-05-07T09:17:04;18.25;73.68
66337;SHT30;53139;45.576;5.304;2023-05-07T09:20:05;18.08;75.26
66337;SHT30;53139;45.576;5.304;2023-05-07T09:23:07;18.02;76.57
66337;SHT30;53139;45.576;5.304;2023-05-07T09:26:07;17.88;75.99
66337;SHT30;53139;45.576;5.304;2023-05-07T09:29:11;17.53;79.32
66337;SHT30;53139;45.576;5.304;2023-05-07T09:32:12;17.60;78.88
66337;SHT30;53139;45.576;5.304;2023-05-07T09:35:17;17.46;79.80
66337;SHT30;53139;45.576;5.304;2023-05-07T09:38:19;17.28;80.21
66337;SHT30;53139;45.576;5.304;2023-05-07T09:41:21;17.19;80.06
66337;SHT30;53139;45.576;5.304;2023-05-07T09:44:22;17.04;81.05
66337;SHT30;53139;45.576;5.304;2023-05-07T09:47:24;17.07;80.58
66337;SHT30;53139;45.576;5.304;2023-05-07T09:50:32;17.02;81.52
66337;SHT30;53139;45.576;5.304;2023-05-07T09:53:36;17.15;81.90
66337;SHT30;53139;45.576;5.304;2023-05-07T09:56:36;16.81;82.03
66337;SHT30;53139;45.576;5.304;2023-05-07T09:59:42;16.81;81.76
66337;SHT30;53139;45.576;5.304;2023-05-07T10:02:45;16.87;81.82
66337;SHT30;53139;45.576;5.304;2023-05-07T10:05:49;16.71;83.74
66337;SHT30;53139;45.576;5.304;2023-05-07T10:08:51;16.78;83.22
66337;SHT30;53139;45.576;5.304;2023-05-07T10:11:52;16.81;83.09
66337;SHT30;53139;45.576;5.304;2023-05-07T10:14:54;16.80;83.55
66337;SHT30;53139;45.576;5.304;2023-05-07T10:17:55;16.68;82.18
66337;SHT30;53139;45.576;5.304;2023-05-07T10:24:26;16.81;82.93
66337;SHT30;53139;45.576;5.304;2023-05-07T10:27:27;16.56;84.79
66337;SHT30;53139;45.576;5.304;2023-05-07T10:34:10;16.63;86.92
66337;SHT30;53139;45.576;5.304;2023-05-07T10:37:11;16.52;85.63
66337;SHT30;53139;45.576;5.304;2023-05-07T10:40:12;16.71;88.10
66337;SHT30;53139;45.576;5.304;2023-05-07T10:43:13;16.74;85.57
66337;SHT30;53139;45.576;5.304;2023-05-07T10:46:17;16.84;87.99
66337;SHT30;53139;45.576;5.304;2023-05-07T10:49:17;16.71;88.43
66337;SHT30;53139;45.576;5.304;2023-05-07T10:52:20;16.59;87.13
66337;SHT30;53139;45.576;5.304;2023-05-07T10:55:21;16.49;89.83
66337;SHT30;53139;45.576;5.304;2023-05-07T11:05:20;16.65;86.65
66337;SHT30;53139;45.576;5.304;2023-05-07T11:08:21;16.63;86.96
66337;SHT30;53139;45.576;5.304;2023-05-07T11:11:46;16.82;87.62
66337;SHT30;53139;45.576;5.304;2023-05-07T11:14:47;16.88;88.84
66337;SHT30;53139;45.576;5.304;2023-05-07T11:17:53;17.07;87.23
66337;SHT30;53139;45.576;5.304;2023-05-07T11:20:56;16.77;87.67
66337;SHT30;53139;45.576;5.304;2023-05-07T11:23:57;17.02;87.22
66337;SHT30;53139;45.576;5.304;2023-05-07T11:26:58;16.74;88.92
66337;SHT30;53139;45.576;5.304;2023-05-07T11:29:59;16.91;88.37
66337;SHT30;53139;45.576;5.304;2023-05-07T11:33:01;17.25;88.19
66337;SHT30;53139;45.576;5.304;2023-05-07T11:36:03;16.98;88.81
66337;SHT30;53139;45.576;5.304;2023-05-07T11:39:04;17.37;87.77
66337;SHT30;53139;45.576;5.304;2023-05-07T11:42:34;17.29;86.77
66337;SHT30;53139;45.576;5.304;2023-05-07T11:45:35;17.37;86.48
66337;SHT30;53139;45.576;5.304;2023-05-07T11:48:38;17.29;86.69
66337;SHT30;53139;45.576;5.304;2023-05-07T11:51:38;16.96;87.89
66337;SHT30;53139;45.576;5.304;2023-05-07T11:54:39;17.40;87.56
66337;SHT30;53139;45.576;5.304;2023-05-07T11:57:42;17.32;87.53
66337;SHT30;53139;45.576;5.304;2023-05-07T12:00:54;17.09;87.22
66337;SHT30;53139;45.576;5.304;2023-05-07T12:03:58;17.18;88.41
66337;SHT30;53139;45.576;5.304;2023-05-07T12:07:10;17.15;87.87
66337;SHT30;53139;45.576;5.304;2023-05-07T12:10:17;16.94;87.74
66337;SHT30;53139;45.576;5.304;2023-05-07T12:13:22;16.95;88.18
66337;SHT30;53139;45.576;5.304;2023-05-07T12:16:23;16.88;88.22
66337;SHT30;53139;45.576;5.304;2023-05-07T12:19:23;17.23;88.35
66337;SHT30;53139;45.576;5.304;2023-05-07T12:22:24;17.02;89.50
66337;SHT30;53139;45.576;5.304;2023-05-07T12:25:25;17.04;87.73
66337;SHT30;53139;45.576;5.304;2023-05-07T12:28:25;16.92;89.56
66337;SHT30;53139;45.576;5.304;2023-05-07T12:31:26;17.02;89.07
66337;SHT30;53139;45.576;5.304;2023-05-07T12:34:27;17.25;87.20
66337;SHT30;53139;45.576;5.304;2023-05-07T12:37:28;17.09;88.16
66337;SHT30;53139;45.576;5.304;2023-05-07T12:40:53;17.02;88.09
66337;SHT30;53139;45.576;5.304;2023-05-07T12:43:58;17.50;86.95
66337;SHT30;53139;45.576;5.304;2023-05-07T12:47:01;17.64;85.52
66337;SHT30;53139;45.576;5.304;2023-05-07T12:50:04;17.16;88.20
66337;SHT30;53139;45.576;5.304;2023-05-07T12:53:06;17.20;86.57
66337;SHT30;53139;45.576;5.304;2023-05-07T12:56:08;17.09;86.63
66337;SHT30;53139;45.576;5.304;2023-05-07T12:59:08;17.47;87.13
66337;SHT30;53139;45.576;5.304;2023-05-07T13:02:09;17.54;87.87
66337;SHT30;53139;45.576;5.304;2023-05-07T13:05:10;17.75;87.45
66337;SHT30;53139;45.576;5.304;2023-05-07T13:08:10;17.49;85.95
66337;SHT30;53139;45.576;5.304;2023-05-07T13:11:11;17.88;86.21
66337;SHT30;53139;45.576;5.304;2023-05-07T13:14:12;17.75;86.63
66337;SHT30;53139;45.576;5.304;2023-05-07T13:17:12;17.49;86.30
66337;SHT30;53139;45.576;5.304;2023-05-07T13:20:13;17.47;84.94
66337;SHT30;53139;45.576;5.304;2023-05-07T13:23:13;17.33;85.28
66337;SHT30;53139;45.576;5.304;2023-05-07T13:26:14;17.56;86.38
66337;SHT30;53139;45.576;5.304;2023-05-07T13:29:14;17.64;83.55
66337;SHT30;53139;45.576;5.304;2023-05-07T13:32:14;17.36;84.87
66337;SHT30;53139;45.576;5.304;2023-05-07T13:35:16;17.51;84.54
66337;SHT30;53139;45.576;5.304;2023-05-07T13:38:16;17.32;85.29
66337;SHT30;53139;45.576;5.304;2023-05-07T13:41:17;17.42;84.32
66337;SHT30;53139;45.576;5.304;2023-05-07T13:44:18;17.50;85.30
66337;SHT30;53139;45.576;5.304;2023-05-07T13:47:18;17.46;85.44
66337;SHT30;53139;45.576;5.304;2023-05-07T13:50:19;17.39;87.59
66337;SHT30;53139;45.576;5.304;2023-05-07T13:53:19;17.63;85.53
66337;SHT30;53139;45.576;5.304;2023-05-07T13:56:20;17.46;85.61
66337;SHT30;53139;45.576;5.304;2023-05-07T13:59:21;17.32;86.65
66337;SHT30;53139;45.576;5.304;2023-05-07T14:02:21;17.01;87.49
66337;SHT30;53139;45.576;5.304;2023-05-07T14:05:22;17.07;89.01
66337;SHT30;53139;45.576;5.304;2023-05-07T14:08:23;16.91;89.27
66337;SHT30;53139;45.576;5.304;2023-05-07T14:11:49;17.09;88.04
66337;SHT30;53139;45.576;5.304;2023-05-07T14:15:29;17.01;90.39
66337;SHT30;53139;45.576;5.304;2023-05-07T14:19:16;16.77;89.96
66337;SHT30;53139;45.576;5.304;2023-05-07T14:23:08;17.22;89.67
66337;SHT30;53139;45.576;5.304;2023-05-07T14:26:37;17.14;88.88
66337;SHT30;53139;45.576;5.304;2023-05-07T14:29:37;16.85;89.02
66337;SHT30;53139;45.576;5.304;2023-05-07T14:32:38;17.33;87.38
66337;SHT30;53139;45.576;5.304;2023-05-07T14:35:39;17.40;87.78
66337;SHT30;53139;45.576;5.304;2023-05-07T14:38:39;17.40;89.01
66337;SHT30;53139;45.576;5.304;2023-05-07T14:41:52;17.62;86.94
66337;SHT30;53139;45.576;5.304;2023-05-07T14:44:55;17.88;86.69
66337;SHT30;53139;45.576;5.304;2023-05-07T14:48:21;17.40;86.57
66337;SHT30;53139;45.576;5.304;2023-05-07T14:52:15;17.66;87.58
66337;SHT30;53139;45.576;5.304;2023-05-07T14:56:04;17.51;85.40
66337;SHT30;53139;45.576;5.304;2023-05-07T14:59:08;17.39;86.28
66337;SHT30;53139;45.576;5.304;2023-05-07T15:02:10;17.16;86.44
66337;SHT30;53139;45.576;5.304;2023-05-07T15:05:11;17.36;86.15
66337;SHT30;53139;45.576;5.304;2023-05-07T15:08:11;17.67;85.08
66337;SHT30;53139;45.576;5.304;2023-05-07T15:11:12;17.54;85.23
66337;SHT30;53139;45.576;5.304;2023-05-07T15:14:12;17.49;84.14
66337;SHT30;53139;45.576;5.304;2023-05-07T15:17:13;17.56;84.87
66337;SHT30;53139;45.576;5.304;2023-05-07T15:20:15;17.50;85.50
66337;SHT30;53139;45.576;5.304;2023-05-07T15:23:15;17.47;83.81
66337;SHT30;53139;45.576;5.304;2023-05-07T15:26:15;17.47;84.85
66337;SHT30;53139;45.576;5.304;2023-05-07T15:29:16;17.64;84.80
66337;SHT30;53139;45.576;5.304;2023-05-07T15:32:16;17.62;85.12
66337;SHT30;53139;45.576;5.304;2023-05-07T15:35:16;17.35;85.35
66337;SHT30;53139;45.576;5.304;2023-05-07T15:38:21;17.66;85.15
66337;SHT30;53139;45.576;5.304;2023-05-07T15:41:22;17.59;84.67
66337;SHT30;53139;45.576;5.304;2023-05-07T15:44:22;17.67;84.75
66337;SHT30;53139;45.576;5.304;2023-05-07T15:47:26;17.75;83.92
66337;SHT30;53139;45.576;5.304;2023-05-07T15:50:26;17.35;82.31
66337;SHT30;53139;45.576;5.304;2023-05-07T15:53:28;17.39;83.21
66337;SHT30;53139;45.576;5.304;2023-05-07T15:56:29;17.32;83.63
66337;SHT30;53139;45.576;5.304;2023-05-07T15:59:32;17.42;85.27
66337;SHT30;53139;45.576;5.304;2023-05-07T16:02:33;17.32;83.47
66337;SHT30;53139;45.576;5.304;2023-05-07T16:05:34;17.30;85.28
66337;SHT30;53139;45.576;5.304;2023-05-07T16:08:34;17.26;86.12
66337;SHT30;53139;45.576;5.304;2023-05-07T16:11:35;17.25;85.67
66337;SHT30;53139;45.576;5.304;2023-05-07T16:14:35;17.22;86.68
66337;SHT30;53139;45.576;5.304;2023-05-07T16:17:36;17.05;86.70
66337;SHT30;53139;45.576;5.304;2023-05-07T16:20:36;17.20;86.92
66337;SHT30;53139;45.576;5.304;2023-05-07T16:23:37;17.11;86.11
66337;SHT30;53139;45.576;5.304;2023-05-07T16:26:37;17.26;88.33
66337;SHT30;53139;45.576;5.304;2023-05-07T16:29:37;17.37;86.91
66337;SHT30;53139;45.576;5.304;2023-05-07T16:32:39;17.40;85.36
66337;SHT30;53139;45.576;5.304;2023-05-07T16:35:39;16.75;87.38
66337;SHT30;53139;45.576;5.304;2023-05-07T16:38:40;16.57;87.55
66337;SHT30;53139;45.576;5.304;2023-05-07T16:41:40;16.75;87.42
66337;SHT30;53139;45.576;5.304;2023-05-07T16:44:41;16.91;87.81
66337;SHT30;53139;45.576;5.304;2023-05-07T16:47:41;16.88;89.43
66337;SHT30;53139;45.576;5.304;2023-05-07T16:50:42;16.67;88.57
66337;SHT30;53139;45.576;5.304;2023-05-07T16:53:43;16.68;89.56
66337;SHT30;53139;45.576;5.304;2023-05-07T16:56:43;16.40;89.22
66337;SHT30;53139;45.576;5.304;2023-05-07T16:59:44;16.33;90.12
66337;SHT30;53139;45.576;5.304;2023-05-07T17:02:44;16.61;89.81
66337;SHT30;53139;45.576;5.304;2023-05-07T17:05:45;16.52;89.84
66337;SHT30;53139;45.576;5.304;2023-05-07T17:08:46;16.37;89.44
66337;SHT30;53139;45.576;5.304;2023-05-07T17:11:46;16.19;91.55
66337;SHT30;53139;45.576;5.304;2023-05-07T17:14:47;16.33;89.78
66337;SHT30;53139;45.576;5.304;2023-05-07T17:17:47;16.27;89.72
66337;SHT30;53139;45.576;5.304;2023-05-07T17:20:48;16.32;90.09
66337;SHT30;53139;45.576;5.304;2023-05-07T17:23:48;16.20;91.12
66337;SHT30;53139;45.576;5.304;2023-05-07T17:26:48;16.12;91.32
66337;SHT30;53139;45.576;5.304;2023-05-07T17:29:49;15.94;91.50
66337;SHT30;53139;45.576;5.304;2023-05-07T17:32:49;16.08;91.14
66337;SHT30;53139;45.576;5.304;2023-05-07T17:35:51;16.16;90.34
66337;SHT30;53139;45.576;5.304;2023-05-07T17:38:52;16.01;91.20
66337;SHT30;53139;45.576;5.304;2023-05-07T17:41:52;15.95;91.73
66337;SHT30;53139;45.576;5.304;2023-05-07T17:44:52;16.05;90.97
66337;SHT30;53139;45.576;5.304;2023-05-07T17:47:54;15.92;92.39
66337;SHT30;53139;45.576;5.304;2023-05-07T17:51:02;16.32;91.01
66337;SHT30;53139;45.576;5.304;2023-05-07T17:54:03;16.30;91.21
66337;SHT30;53139;45.576;5.304;2023-05-07T17:57:03;16.12;92.61
66337;SHT30;53139;45.576;5.304;2023-05-07T18:00:04;16.09;92.19
66337;SHT30;53139;45.576;5.304;2023-05-07T18:03:09;16.01;92.88
66337;SHT30;53139;45.576;5.304;2023-05-07T18:06:09;16.02;93.12
66337;SHT30;53139;45.576;5.304;2023-05-07T18:09:09;16.33;91.57
66337;SHT30;53139;45.576;5.304;2023-05-07T18:12:10;16.40;90.90
66337;SHT30;53139;45.576;5.304;2023-05-07T18:15:11;16.26;92.03
66337;SHT30;53139;45.576;5.304;2023-05-07T18:18:11;16.40;90.57
66337;SHT30;53139;45.576;5.304;2023-05-07T18:21:12;16.10;92.47
66337;SHT30;53139;45.576;5.304;2023-05-07T18:24:17;15.98;93.01
66337;SHT30;53139;45.576;5.304;2023-05-07T18:27:18;15.85;94.09
66337;SHT30;53139;45.576;5.304;2023-05-07T18:30:19;15.70;94.76
66337;SHT30;53139;45.576;5.304;2023-05-07T18:33:21;15.78;94.89
66337;SHT30;53139;45.576;5.304;2023-05-07T18:36:21;15.57;95.81
66337;SHT30;53139;45.576;5.304;2023-05-07T18:39:24;15.74;94.67
66337;SHT30;53139;45.576;5.304;2023-05-07T18:42:24;15.70;94.32
66337;SHT30;53139;45.576;5.304;2023-05-07T18:45:25;15.54;94.96
66337;SHT30;53139;45.576;5.304;2023-05-07T18:48:25;15.58;94.31
66337;SHT30;53139;45.576;5.304;2023-05-07T18:51:26;15.63;93.84
66337;SHT30;53139;45.576;5.304;2023-05-07T18:54:26;15.37;95.19
66337;SHT30;53139;45.576;5.304;2023-05-07T18:57:30;15.35;95.17
66337;SHT30;53139;45.576;5.304;2023-05-07T19:00:30;15.46;94.08
66337;SHT30;53139;45.576;5.304;2023-05-07T19:03:31;15.40;95.09
66337;SHT30;53139;45.576;5.304;2023-05-07T19:06:31;15.25;95.63
66337;SHT30;53139;45.576;5.304;2023-05-07T19:09:31;15.36;95.02
66337;SHT30;53139;45.576;5.304;2023-05-07T19:12:32;15.29;95.40
66337;SHT30;53139;45.576;5.304;2023-05-07T19:15:32;15.35;94.58
66337;SHT30;53139;45.576;5.304;2023-05-07T19:18:33;15.30;94.87
66337;SHT30;53139;45.576;5.304;2023-05-07T19:21:33;15.33;94.22
66337;SHT30;53139;45.576;5.304;2023-05-07T19:24:34;15.27;95.48